Time;durP1;ratioP1;P1;durP2;ratioP2;P2;SDS_P1;SDS_P2;PMS_P1;PMS_P2;Temp;Humidity;BMP_temperature;BMP_pressure;BME280_temperature;BME280_humidity;BME280_pressure;Samples;Min_cycle;Max_cycle;Signal;HPM_P1;HPM_P2
2023/10/19 00:00:19;;;;;;;40.30;26.55;;;;;;;7.05;90.10;97236.34;5000546;28;20112;-85
2023/10/19 00:02:54;;;;;;;37.05;23.35;;;;;;;7.01;90.00;97224.69;4996461;28;20025;-84
2023/10/19 00:05:20;;;;;;;33.70;21.55;;;;;;;7.47;87.79;97228.88;5007118;28;20036;-84
2023/10/19 00:07:46;;;;;;;40.30;25.90;;;;;;;6.55;90.82;97195.44;5027008;28;20030;-84
2023/10/19 00:10:15;;;;;;;36.08;24.17;;;;;;;6.79;91.53;97227.56;4996031;28;20025;-84
2023/10/19 00:12:41;;;;;;;39.45;26.90;;;;;;;6.64;91.81;97206.34;4995812;28;20436;-84
2023/10/19 00:15:09;;;;;;;42.75;26.40;;;;;;;6.78;92.32;97210.06;4999941;28;20038;-84
2023/10/19 00:17:34;;;;;;;46.10;25.20;;;;;;;6.63;93.22;97208.19;5010415;28;20115;-85
2023/10/19 00:22:43;;;;;;;38.92;24.13;;;;;;;7.45;88.28;97207.91;4997995;28;20048;-85
2023/10/19 00:25:13;;;;;;;41.05;24.30;;;;;;;6.93;90.48;97186.19;4995177;28;20034;-83
2023/10/19 00:27:39;;;;;;;46.38;26.40;;;;;;;7.33;88.72;97196.78;4997050;28;20457;-84
2023/10/19 00:30:06;;;;;;;36.83;23.60;;;;;;;7.53;87.65;97183.47;4979617;28;20025;-84
2023/10/19 00:32:32;;;;;;;38.42;25.98;;;;;;;6.89;91.14;97187.78;5025304;28;20056;-84
2023/10/19 00:35:04;;;;;;;42.58;26.92;;;;;;;7.01;90.46;97174.28;5011902;28;20099;-84
2023/10/19 00:37:32;;;;;;;36.95;23.98;;;;;;;7.08;90.50;97177.44;4996468;28;20075;-85
2023/10/19 00:40:14;;;;;;;46.20;28.88;;;;;;;6.62;91.96;97158.09;4993058;28;20029;-84
2023/10/19 00:42:45;;;;;;;43.08;26.70;;;;;;;6.88;91.80;97156.25;5012600;28;20086;-83
2023/10/19 00:45:12;;;;;;;50.20;29.83;;;;;;;6.86;90.91;97143.25;4991437;28;20036;-84
2023/10/19 00:47:42;;;;;;;40.30;25.65;;;;;;;7.23;90.64;97143.72;4993649;28;20370;-83
2023/10/19 00:50:17;;;;;;;44.28;27.23;;;;;;;7.05;90.13;97139.00;5009125;28;20034;-83
2023/10/19 00:52:49;;;;;;;42.05;26.48;;;;;;;6.87;90.79;97131.59;4994585;28;20037;-83
2023/10/19 00:55:15;;;;;;;45.67;27.35;;;;;;;7.09;91.61;97132.09;5010538;28;20053;-83
2023/10/19 00:57:46;;;;;;;43.03;27.05;;;;;;;7.27;89.44;97126.19;5015229;28;20041;-84
2023/10/19 01:00:12;;;;;;;45.72;27.85;;;;;;;6.96;89.90;97124.69;4994508;28;20056;-84
2023/10/19 01:02:43;;;;;;;45.83;26.08;;;;;;;7.50;88.29;97128.28;4979133;28;20120;-84
2023/10/19 01:05:12;;;;;;;45.75;28.80;;;;;;;7.26;88.30;97115.88;5010064;28;20090;-84
2023/10/19 01:07:39;;;;;;;49.67;29.73;;;;;;;6.61;91.21;97093.69;5030014;28;20029;-84
2023/10/19 01:10:18;;;;;;;54.42;30.27;;;;;;;6.57;93.29;97108.53;5012558;28;20025;-84
2023/10/19 01:12:43;;;;;;;56.97;32.15;;;;;;;6.51;93.90;97085.72;5021438;28;20033;-85
2023/10/19 01:17:56;;;;;;;56.10;31.75;;;;;;;6.41;94.83;97084.94;5009480;28;20122;-84
2023/10/19 01:29:01;;;;;;;48.58;28.90;;;;;;;7.36;89.28;97084.78;5027029;28;20021;-84
2023/10/19 01:31:22;;;;;;;50.35;31.95;;;;;;;6.62;92.22;97060.81;5024518;28;20124;-84
2023/10/19 01:33:47;;;;;;;45.85;29.00;;;;;;;7.11;91.26;97063.66;5035636;28;20037;-84
2023/10/19 01:38:48;;;;;;;52.22;30.70;;;;;;;6.68;92.32;97043.81;5031362;28;20434;-83
2023/10/19 01:41:18;;;;;;;57.15;28.85;;;;;;;6.85;91.11;97059.47;5016475;28;20551;-84
2023/10/19 01:43:44;;;;;;;53.42;29.33;;;;;;;7.00;91.20;97045.38;5004085;28;20030;-84
2023/10/19 01:46:11;;;;;;;48.42;29.98;;;;;;;7.05;89.73;97035.56;5001740;28;20537;-84
2023/10/19 01:48:41;;;;;;;49.20;30.88;;;;;;;6.75;91.74;97044.34;5026022;28;20025;-85
2023/10/19 01:51:13;;;;;;;53.92;33.88;;;;;;;6.75;92.16;97049.66;5013571;28;20026;-85
2023/10/19 01:53:39;;;;;;;45.83;28.38;;;;;;;7.38;90.02;97040.19;5014942;28;20025;-85
2023/10/19 01:56:09;;;;;;;54.13;29.45;;;;;;;7.05;90.11;97032.09;5029523;28;20048;-85
2023/10/19 01:58:36;;;;;;;56.78;30.23;;;;;;;7.15;90.25;97046.13;5014230;28;20115;-85
2023/10/19 02:01:08;;;;;;;43.38;27.45;;;;;;;7.30;89.32;97047.91;5012253;28;20388;-85
2023/10/19 02:03:35;;;;;;;48.17;29.00;;;;;;;7.50;88.16;97032.72;5011145;28;20087;-85
2023/10/19 02:08:51;;;;;;;48.75;31.17;;;;;;;7.21;88.71;97025.66;5013984;28;20033;-85
2023/10/19 02:11:21;;;;;;;49.88;29.92;;;;;;;7.57;87.07;97016.50;5014809;28;20091;-84
2023/10/19 02:13:47;;;;;;;48.83;27.17;;;;;;;7.61;88.45;97019.38;5015147;28;20481;-85
2023/10/19 02:16:21;;;;;;;44.88;29.58;;;;;;;7.51;88.78;97022.91;4997343;28;20044;-85
2023/10/19 02:18:47;;;;;;;46.22;29.60;;;;;;;7.03;89.77;97013.81;5014066;28;20040;-86
2023/10/19 02:21:13;;;;;;;47.20;29.55;;;;;;;7.23;90.68;97005.75;4998402;28;20037;-85
2023/10/19 02:23:41;;;;;;;50.30;30.17;;;;;;;7.34;89.11;97003.84;5027230;28;20481;-85
2023/10/19 02:26:12;;;;;;;48.55;29.25;;;;;;;7.43;88.61;97000.34;5031490;28;20016;-84
2023/10/19 02:28:39;;;;;;;47.10;28.83;;;;;;;7.50;89.75;97014.13;5017867;28;20030;-85
2023/10/19 02:31:15;;;;;;;54.33;32.75;;;;;;;7.08;90.11;96986.44;5013777;28;20124;-84
2023/10/19 02:33:40;;;;;;;;;;;;;;;7.43;88.61;97003.00;5015581;28;20084;-84
2023/10/19 02:36:12;;;;;;;46.23;28.73;;;;;;;7.22;90.57;96995.41;5007443;28;19921;-85
2023/10/19 02:38:38;;;;;;;46.33;30.38;;;;;;;7.39;90.11;96994.00;4995528;28;20034;-84
2023/10/19 02:41:04;;;;;;;43.78;28.58;;;;;;;7.62;88.64;96981.16;5027833;28;20477;-84
2023/10/19 02:43:32;;;;;;;49.85;32.00;;;;;;;7.15;90.76;96992.25;5013700;28;20030;-84
2023/10/19 02:45:59;;;;;;;50.00;30.48;;;;;;;7.42;89.03;96977.56;5013379;28;20025;-84
2023/10/19 02:48:24;;;;;;;52.47;32.05;;;;;;;7.32;91.03;96979.44;5028599;28;20631;-84
2023/10/19 02:50:50;;;;;;;48.03;31.05;;;;;;;7.64;88.59;96977.16;4993547;28;20059;-84
2023/10/19 02:53:18;;;;;;;49.42;31.25;;;;;;;7.50;89.40;96973.50;4995290;28;20028;-84
2023/10/19 02:55:44;;;;;;;45.92;29.20;;;;;;;7.65;88.45;96980.59;4994219;28;20033;-84
2023/10/19 02:58:09;;;;;;;49.58;30.55;;;;;;;7.22;90.83;96964.38;5011635;28;20040;-83
2023/10/19 03:00:37;;;;;;;51.60;32.00;;;;;;;7.15;91.97;96961.22;4995364;28;20393;-84
2023/10/19 03:03:05;;;;;;;52.22;32.10;;;;;;;7.20;90.93;96960.41;5029774;28;20628;-84
2023/10/19 03:05:31;;;;;;;51.72;30.20;;;;;;;7.54;89.45;96953.31;5011937;28;20129;-84
2023/10/19 03:07:56;;;;;;;51.33;30.08;;;;;;;7.84;88.16;96947.78;4980734;28;20511;-84
2023/10/19 03:10:34;;;;;;;43.70;28.33;;;;;;;7.61;89.57;96958.31;5011237;28;20057;-83
2023/10/19 03:13:01;;;;;;;46.08;28.90;;;;;;;7.49;90.07;96950.72;5013023;28;20025;-83
2023/10/19 03:15:29;;;;;;;48.15;28.73;;;;;;;7.52;89.92;96956.25;4996674;28;20037;-84
2023/10/19 03:17:54;;;;;;;44.88;29.55;;;;;;;7.53;89.81;96955.16;4994389;28;20167;-84
2023/10/19 03:20:23;;;;;;;46.65;28.65;;;;;;;7.68;89.13;96964.91;5016608;28;20124;-84
2023/10/19 03:22:49;;;;;;;43.50;29.25;;;;;;;7.65;89.30;96954.03;5016748;28;20064;-84
2023/10/19 03:26:17;;;;;;;45.47;29.63;;;;;;;7.61;89.00;96958.31;5010923;28;20061;-84
2023/10/19 03:28:11;;;;;;;44.20;28.67;;;;;;;7.66;88.54;96943.16;5028174;28;20048;-84
2023/10/19 03:30:40;;;;;;;44.53;28.13;;;;;;;7.37;91.05;96952.88;4996907;28;20040;-83
2023/10/19 03:33:08;;;;;;;44.45;29.05;;;;;;;7.42;90.87;96956.31;5012310;28;20068;-84
2023/10/19 03:35:35;;;;;;;43.83;29.05;;;;;;;7.64;90.24;96950.63;4996670;28;20033;-84
2023/10/19 03:38:07;;;;;;;43.70;26.52;;;;;;;7.68;89.44;96949.00;5031645;28;20033;-84
2023/10/19 03:40:34;;;;;;;38.70;25.42;;;;;;;7.88;88.53;96943.53;5009943;28;20143;-84
2023/10/19 03:43:05;;;;;;;50.97;29.58;;;;;;;7.42;90.57;96935.09;5008326;28;20021;-83
2023/10/19 03:45:33;;;;;;;44.58;26.90;;;;;;;7.84;88.75;96937.16;5010839;28;20439;-84
2023/10/19 03:48:00;;;;;;;38.33;25.90;;;;;;;7.83;89.16;96929.50;5008491;28;20029;-84
2023/10/19 03:50:29;;;;;;;39.58;27.77;;;;;;;7.78;88.69;96927.66;4980212;28;20041;-84
2023/10/19 03:52:55;;;;;;;40.95;27.27;;;;;;;7.82;89.81;96917.28;4993103;28;20389;-83
2023/10/19 03:55:23;;;;;;;39.60;26.55;;;;;;;7.74;89.63;96925.84;5007418;28;20034;-84
2023/10/19 03:57:54;;;;;;;44.42;27.40;;;;;;;7.81;88.97;96905.88;5023773;28;20065;-84
2023/10/19 04:00:24;;;;;;;40.25;25.77;;;;;;;7.58;90.50;96901.25;5025638;28;20033;-85
2023/10/19 04:02:53;;;;;;;37.47;25.73;;;;;;;7.82;89.16;96912.75;5007500;28;20029;-84
2023/10/19 04:05:22;;;;;;;40.17;26.33;;;;;;;8.07;88.78;96915.22;4978459;28;20057;-84
2023/10/19 04:07:55;;;;;;;36.92;25.30;;;;;;;8.12;88.28;96907.19;4999304;28;20022;-84
2023/10/19 04:10:38;;;;;;;40.95;24.83;;;;;;;7.96;88.21;96912.91;5029637;28;20040;-84
2023/10/19 04:13:04;;;;;;;37.70;24.00;;;;;;;8.15;87.35;96914.59;5008393;28;20029;-84
2023/10/19 04:15:33;;;;;;;32.53;23.23;;;;;;;8.18;87.58;96921.22;5005941;28;20032;-84
2023/10/19 04:18:00;;;;;;;34.92;25.00;;;;;;;8.12;88.60;96915.19;5027026;28;20068;-84
2023/10/19 04:22:51;;;;;;;37.75;23.73;;;;;;;8.11;87.72;96894.97;5027507;28;20021;-84
2023/10/19 04:25:29;;;;;;;32.08;22.02;;;;;;;8.14;87.92;96910.38;5009451;28;20061;-84
2023/10/19 04:27:56;;;;;;;31.58;21.20;;;;;;;7.96;88.46;96889.81;5005907;28;20872;-84
2023/10/19 04:30:22;;;;;;;32.50;22.70;;;;;;;8.14;88.25;96888.31;5008393;28;20477;-84
2023/10/19 04:32:48;;;;;;;30.23;20.30;;;;;;;8.16;88.69;96886.97;4980375;28;20025;-84
2023/10/19 04:35:14;;;;;;;29.27;21.20;;;;;;;8.11;87.92;96884.34;5010015;28;20036;-84
2023/10/19 04:37:44;;;;;;;28.60;20.42;;;;;;;8.20;87.68;96888.00;4993467;28;20033;-84
2023/10/19 04:40:10;;;;;;;27.00;20.42;;;;;;;8.25;87.39;96882.66;4994173;28;20046;-84
2023/10/19 04:42:37;;;;;;;28.17;19.17;;;;;;;8.26;87.23;96878.91;4995825;28;20042;-84
2023/10/19 04:45:05;;;;;;;24.35;17.83;;;;;;;8.23;87.67;96881.31;5008279;28;20037;-83
2023/10/19 04:47:30;;;;;;;26.45;19.75;;;;;;;8.04;88.31;96877.75;5029311;28;20017;-84
2023/10/19 04:49:55;;;;;;;26.08;18.30;;;;;;;8.26;87.76;96884.22;5026785;28;20362;-84
2023/10/19 04:52:21;;;;;;;26.38;18.45;;;;;;;8.11;88.45;96876.38;5007940;28;20033;-84
2023/10/19 04:54:46;;;;;;;25.83;17.70;;;;;;;8.23;87.79;96881.31;5014651;28;20033;-84
2023/10/19 04:57:12;;;;;;;25.85;17.50;;;;;;;8.28;87.92;96876.75;5013888;28;20038;-84
2023/10/19 04:59:37;;;;;;;23.02;16.25;;;;;;;8.32;87.24;96869.03;4996317;28;20076;-84
2023/10/19 05:02:03;;;;;;;24.02;16.67;;;;;;;8.30;88.02;96879.13;4985997;28;20065;-84
2023/10/19 05:04:29;;;;;;;25.20;15.73;;;;;;;8.15;88.35;96873.94;4996498;28;20029;-84
2023/10/19 05:06:55;;;;;;;20.73;15.60;;;;;;;8.34;87.71;96874.06;5015286;28;20037;-84
2023/10/19 05:09:20;;;;;;;22.70;15.65;;;;;;;8.19;88.59;96870.44;4996752;28;20047;-84
2023/10/19 05:11:46;;;;;;;20.00;14.48;;;;;;;8.27;88.24;96859.25;5017790;28;20446;-85
2023/10/19 05:14:14;;;;;;;17.27;13.80;;;;;;;8.37;88.57;96863.66;4999215;28;20075;-84
2023/10/19 05:16:40;;;;;;;21.02;14.02;;;;;;;8.28;88.84;96852.03;5014270;28;20033;-84
2023/10/19 05:19:06;;;;;;;17.02;13.68;;;;;;;8.24;88.42;96843.03;4998449;28;20083;-84
2023/10/19 05:21:31;;;;;;;16.98;12.60;;;;;;;8.30;88.44;96868.50;4999389;28;20045;-84
2023/10/19 05:24:00;;;;;;;21.00;13.00;;;;;;;8.24;88.27;96856.31;5016117;28;20991;-84
2023/10/19 05:26:26;;;;;;;16.85;12.57;;;;;;;8.44;87.89;96877.41;5012291;28;20052;-85
2023/10/19 05:28:51;;;;;;;16.50;13.07;;;;;;;8.30;88.34;96847.25;5031279;28;20055;-84
2023/10/19 05:31:17;;;;;;;19.05;13.77;;;;;;;8.21;89.20;96851.59;5012835;28;21934;-84
2023/10/19 05:33:42;;;;;;;17.17;11.88;;;;;;;8.01;88.81;96814.59;5035188;28;20029;-84
2023/10/19 05:36:08;;;;;;;15.20;11.80;;;;;;;8.14;89.56;96840.50;4983374;28;20029;-83
2023/10/19 05:38:33;;;;;;;16.33;12.10;;;;;;;8.28;89.03;96858.16;4998136;28;20034;-83
2023/10/19 05:41:01;;;;;;;16.70;12.20;;;;;;;8.40;88.85;96859.63;5004477;28;20049;-83
2023/10/19 05:43:28;;;;;;;14.25;11.80;;;;;;;8.26;89.68;96864.81;5010604;28;20044;-83
2023/10/19 05:45:53;;;;;;;17.35;12.13;;;;;;;8.11;90.72;96865.75;5029270;28;20484;-83
2023/10/19 05:48:20;;;;;;;16.60;12.20;;;;;;;8.21;90.77;96856.91;5016245;28;20079;-83
2023/10/19 05:50:45;;;;;;;18.20;11.27;;;;;;;8.34;89.13;96858.91;5015719;28;20488;-83
2023/10/19 05:53:10;;;;;;;14.40;10.77;;;;;;;8.27;90.16;96855.78;5015550;28;20037;-83
2023/10/19 05:55:36;;;;;;;15.90;11.77;;;;;;;8.21;89.83;96849.69;4996239;28;20908;-83
2023/10/19 05:58:04;;;;;;;14.45;10.65;;;;;;;8.27;90.76;96866.44;5001421;28;20504;-83
2023/10/19 06:00:30;;;;;;;16.63;12.00;;;;;;;8.23;89.95;96865.38;5014704;28;20512;-83
2023/10/19 06:02:57;;;;;;;13.45;10.65;;;;;;;8.36;89.50;96864.75;5028279;28;20108;-83
2023/10/19 06:05:23;;;;;;;19.70;11.55;;;;;;;8.41;89.53;96869.97;4998870;28;20417;-84
2023/10/19 06:07:50;;;;;;;11.75;10.32;;;;;;;8.52;89.25;96868.03;5032920;28;20632;-83
2023/10/19 06:10:20;;;;;;;14.82;10.60;;;;;;;8.42;89.24;96857.47;5014356;28;20025;-83
2023/10/19 06:12:50;;;;;;;12.95;9.95;;;;;;;8.53;89.30;96865.06;5012425;28;20060;-83
2023/10/19 06:15:18;;;;;;;13.45;10.38;;;;;;;8.52;88.79;96870.69;5002045;28;20037;-83
2023/10/19 06:17:45;;;;;;;11.65;10.07;;;;;;;8.43;90.17;96880.34;4993952;28;20042;-83
2023/10/19 06:20:19;;;;;;;12.15;9.80;;;;;;;8.53;89.83;96885.53;4997723;28;20035;-83
2023/10/19 06:22:50;;;;;;;12.73;9.45;;;;;;;8.52;89.58;96878.66;5032903;28;20025;-83
2023/10/19 06:25:17;;;;;;;12.60;10.18;;;;;;;8.58;89.93;96878.31;5030327;28;20376;-83
2023/10/19 06:27:43;;;;;;;14.10;10.70;;;;;;;8.62;89.88;96860.72;4994845;28;20029;-83
2023/10/19 06:30:10;;;;;;;14.75;10.00;;;;;;;8.64;89.00;96855.09;4995640;28;20374;-83
2023/10/19 06:32:36;;;;;;;11.40;9.48;;;;;;;8.71;89.35;96868.84;4997582;28;20036;-83
2023/10/19 06:35:01;;;;;;;13.90;10.20;;;;;;;8.67;89.11;96865.94;5013004;28;20057;-84
2023/10/19 06:37:27;;;;;;;12.50;9.90;;;;;;;8.68;88.70;96862.22;4996948;28;20116;-83
2023/10/19 06:39:52;;;;;;;12.07;9.32;;;;;;;8.75;88.53;96880.50;5008187;28;20056;-83
2023/10/19 06:42:18;;;;;;;11.55;8.93;;;;;;;8.74;88.73;96876.25;5012189;28;20044;-83
2023/10/19 06:44:43;;;;;;;9.77;8.55;;;;;;;8.65;89.96;96876.09;5009931;28;20069;-83
2023/10/19 06:47:10;;;;;;;11.60;8.90;;;;;;;8.78;89.33;96875.41;5030775;28;20556;-83
2023/10/19 06:49:35;;;;;;;10.20;8.65;;;;;;;8.74;89.03;96877.03;5009048;28;20489;-83
2023/10/19 06:52:01;;;;;;;10.95;9.52;;;;;;;8.80;88.74;96875.91;5014104;28;20029;-83
2023/10/19 06:54:29;;;;;;;10.75;8.65;;;;;;;8.80;88.83;96875.91;5031037;28;20476;-83
2023/10/19 06:56:54;;;;;;;10.20;8.90;;;;;;;8.84;88.67;96879.59;4995160;28;20040;-83
2023/10/19 06:59:20;;;;;;;10.05;8.48;;;;;;;8.89;89.40;96879.50;4978962;28;20063;-83
2023/10/19 07:01:46;;;;;;;9.23;8.00;;;;;;;8.86;89.41;96873.97;4994565;28;20031;-83
2023/10/19 07:04:12;;;;;;;11.55;8.60;;;;;;;8.91;88.55;96869.38;5024715;28;20109;-83
2023/10/19 07:06:38;;;;;;;11.20;8.00;;;;;;;8.93;88.52;96867.22;4988689;28;20037;-83
2023/10/19 07:09:05;;;;;;;10.15;8.25;;;;;;;8.93;88.38;96861.13;5014207;28;20037;-84
2023/10/19 07:11:33;;;;;;;12.32;8.93;;;;;;;8.95;88.99;96878.38;4995449;28;20033;-83
2023/10/19 07:13:59;;;;;;;9.77;8.00;;;;;;;8.97;88.13;96856.81;5016642;28;20025;-84
2023/10/19 07:16:24;;;;;;;10.93;9.45;;;;;;;9.06;88.49;96861.19;5013861;28;20033;-84
2023/10/19 07:18:49;;;;;;;9.32;7.50;;;;;;;9.04;88.49;96858.03;5010686;28;20431;-84
2023/10/19 07:21:17;;;;;;;10.15;7.70;;;;;;;9.19;88.38;96873.00;5007989;28;20096;-84
2023/10/19 07:23:44;;;;;;;10.65;8.25;;;;;;;9.01;89.99;96868.47;5028831;28;20021;-83
2023/10/19 07:26:10;;;;;;;10.77;7.97;;;;;;;9.20;88.37;96865.81;4995828;28;20047;-84
2023/10/19 07:28:37;;;;;;;8.15;7.32;;;;;;;9.14;88.18;96849.13;5009830;28;20033;-83
2023/10/19 07:31:03;;;;;;;8.98;7.63;;;;;;;9.18;88.14;96858.09;4996104;28;20119;-83
2023/10/19 07:33:29;;;;;;;10.40;7.93;;;;;;;9.16;88.24;96841.63;4998128;28;20120;-84
2023/10/19 07:35:54;;;;;;;9.88;8.27;;;;;;;9.28;88.78;96851.88;4996575;28;20672;-83
2023/10/19 07:38:23;;;;;;;9.60;7.65;;;;;;;9.27;88.83;96852.94;4992691;28;20041;-83
2023/10/19 07:40:52;;;;;;;15.05;10.65;;;;;;;9.18;90.72;96847.47;5029309;28;20033;-83
2023/10/19 07:43:19;;;;;;;12.35;7.88;;;;;;;9.34;89.82;96864.00;5011218;28;20087;-84
2023/10/19 07:45:46;;;;;;;13.35;8.35;;;;;;;9.44;88.88;96856.66;5007886;28;20061;-84
2023/10/19 07:48:13;;;;;;;10.77;8.45;;;;;;;9.44;88.32;96855.88;5010937;28;20041;-84
2023/10/19 07:50:42;;;;;;;10.57;8.35;;;;;;;9.54;88.81;96861.84;5029339;28;20055;-84
2023/10/19 07:53:09;;;;;;;13.05;9.05;;;;;;;9.44;89.25;96858.53;5011141;28;20099;-84
2023/10/19 07:55:35;;;;;;;9.98;8.13;;;;;;;9.50;89.85;96844.84;5006033;28;20489;-84
2023/10/19 07:58:02;;;;;;;10.70;8.50;;;;;;;9.41;89.88;96843.94;5008192;28;20037;-83
2023/10/19 08:00:30;;;;;;;11.35;8.55;;;;;;;9.50;89.98;96836.09;5011228;28;20033;-83
2023/10/19 08:02:56;;;;;;;12.40;8.55;;;;;;;9.40;90.07;96826.38;5024341;28;20485;-84
2023/10/19 08:05:22;;;;;;;12.35;9.00;;;;;;;9.46;92.30;96824.41;4981424;28;20148;-84
2023/10/19 08:07:47;;;;;;;9.20;7.47;;;;;;;9.66;89.94;96830.22;4995421;28;20022;-83
2023/10/19 08:10:15;;;;;;;15.60;10.80;;;;;;;9.61;90.55;96821.53;4993530;28;20038;-84
2023/10/19 08:12:42;;;;;;;10.75;8.02;;;;;;;9.69;89.87;96842.16;4994051;28;20021;-83
2023/10/19 08:15:11;;;;;;;15.98;10.45;;;;;;;9.70;88.77;96817.09;5007077;28;20080;-84
2023/10/19 08:17:47;;;;;;;10.63;8.07;;;;;;;9.81;89.68;96832.63;4980297;28;20021;-84
2023/10/19 08:20:16;;;;;;;18.15;8.02;;;;;;;9.90;87.81;96832.75;5028268;28;20514;-83
2023/10/19 08:22:48;;;;;;;10.63;8.02;;;;;;;10.11;87.67;96849.97;5008497;28;20056;-83
2023/10/19 08:25:16;;;;;;;12.75;8.15;;;;;;;9.95;87.19;96847.84;5007176;28;20032;-84
2023/10/19 08:27:44;;;;;;;10.13;8.18;;;;;;;10.03;85.98;96842.63;5010841;28;20037;-83
2023/10/19 08:30:12;;;;;;;10.10;8.95;;;;;;;10.14;86.63;96853.94;5029071;28;20017;-84
2023/10/19 08:32:39;;;;;;;14.05;10.60;;;;;;;10.07;86.76;96851.63;5030456;28;20017;-84
2023/10/19 08:35:05;;;;;;;14.40;11.35;;;;;;;10.07;87.78;96840.97;5009462;28;20029;-83
2023/10/19 08:37:31;;;;;;;14.20;10.63;;;;;;;9.98;86.79;96832.06;4996519;28;20022;-83
2023/10/19 08:39:57;;;;;;;13.32;10.02;;;;;;;10.19;86.00;96853.84;5006775;28;20078;-83
2023/10/19 08:42:23;;;;;;;15.30;9.20;;;;;;;10.20;86.74;96848.22;5028325;28;20060;-84
2023/10/19 08:44:49;;;;;;;13.93;10.45;;;;;;;10.20;86.94;96842.88;5012112;28;20069;-83
2023/10/19 08:47:15;;;;;;;12.90;10.05;;;;;;;10.35;85.57;96847.94;5012376;28;20053;-84
2023/10/19 08:49:41;;;;;;;12.85;9.38;;;;;;;10.23;86.36;96850.31;4995469;28;20485;-83
2023/10/19 08:52:07;;;;;;;13.02;10.30;;;;;;;10.44;85.05;96846.16;5009836;28;20055;-84
2023/10/19 08:54:33;;;;;;;13.18;9.70;;;;;;;10.39;86.61;96856.94;5012225;28;20473;-83
2023/10/19 08:56:59;;;;;;;9.23;8.25;;;;;;;10.43;85.96;96849.13;5012149;28;20029;-84
2023/10/19 08:59:25;;;;;;;11.52;8.98;;;;;;;10.40;85.57;96853.19;5026939;28;20392;-83
2023/10/19 09:01:50;;;;;;;12.43;8.98;;;;;;;10.34;85.47;96825.03;5010992;28;20040;-84
2023/10/19 09:04:16;;;;;;;13.18;8.82;;;;;;;10.40;85.93;96839.84;5010984;28;20056;-83
2023/10/19 09:06:42;;;;;;;11.48;8.43;;;;;;;10.43;87.11;96854.47;4976503;28;20536;-83
2023/10/19 09:09:19;;;;;;;11.32;9.20;;;;;;;10.45;86.45;96852.28;5011426;28;20021;-83
2023/10/19 09:11:46;;;;;;;14.25;8.93;;;;;;;10.50;85.63;96850.34;5010108;28;20076;-83
2023/10/19 09:14:13;;;;;;;13.05;8.77;;;;;;;10.45;87.38;96846.97;5021750;28;20049;-84
2023/10/19 09:17:00;;;;;;;11.27;8.23;;;;;;;10.39;86.71;96842.81;5019783;28;20438;-84
2023/10/19 09:19:43;;;;;;;15.73;10.20;;;;;;;10.39;88.84;96843.63;5009244;28;20029;-84
2023/10/19 09:22:18;;;;;;;10.00;7.55;;;;;;;10.35;87.84;96850.59;5008919;28;20084;-84
2023/10/19 09:24:49;;;;;;;10.00;7.22;;;;;;;10.38;88.16;96839.34;4997014;28;20854;-84
2023/10/19 09:27:17;;;;;;;13.70;9.25;;;;;;;10.36;90.20;96846.84;5010058;28;20151;-84
2023/10/19 09:29:43;;;;;;;14.82;9.40;;;;;;;10.34;89.35;96833.03;5023458;28;20658;-84
2023/10/19 09:32:09;;;;;;;11.23;9.10;;;;;;;10.39;88.75;96840.16;4991780;28;20041;-84
2023/10/19 09:34:36;;;;;;;14.57;8.52;;;;;;;10.48;89.06;96854.38;5007770;28;20041;-83
2023/10/19 09:37:03;;;;;;;11.68;9.27;;;;;;;10.43;90.31;96844.59;5029570;28;20064;-83
2023/10/19 09:39:35;;;;;;;12.90;8.48;;;;;;;10.44;90.24;96854.16;4986869;28;20066;-83
2023/10/19 09:42:10;;;;;;;11.80;7.90;;;;;;;10.32;89.90;96837.88;5021918;28;20061;-84
2023/10/19 09:44:49;;;;;;;12.23;8.75;;;;;;;10.39;88.99;96832.16;4992120;28;20030;-84
2023/10/19 09:47:23;;;;;;;12.60;8.50;;;;;;;10.44;90.06;96829.41;5012431;28;20037;-83
2023/10/19 09:49:50;;;;;;;15.32;8.60;;;;;;;10.44;89.41;96830.16;5028331;28;20053;-85
2023/10/19 09:52:16;;;;;;;12.63;8.40;;;;;;;10.43;89.19;96841.94;4998021;28;20029;-83
2023/10/19 09:55:11;;;;;;;12.60;7.80;;;;;;;10.60;88.14;96841.31;4999357;28;20040;-84
2023/10/19 09:57:44;;;;;;;17.58;11.50;;;;;;;10.43;94.64;96825.94;5008202;28;20044;-83
2023/10/19 10:00:13;;;;;;;15.68;9.35;;;;;;;10.52;92.66;96829.50;4988205;28;20119;-83
2023/10/19 10:02:42;;;;;;;10.60;8.10;;;;;;;10.56;88.79;96821.66;4980694;28;20029;-83
2023/10/19 10:05:36;;;;;;;12.82;7.40;;;;;;;10.66;89.94;96818.03;5031426;28;20025;-83
2023/10/19 10:08:16;;;;;;;18.00;11.45;;;;;;;10.60;96.16;96821.84;5008561;28;20033;-83
2023/10/19 10:10:42;;;;;;;17.17;10.90;;;;;;;10.60;95.31;96808.50;5012445;28;20033;-84
2023/10/19 10:13:32;;;;;;;18.27;10.95;;;;;;;10.63;93.56;96810.59;5015385;28;20137;-84
2023/10/19 10:16:00;;;;;;;13.15;9.00;;;;;;;10.74;90.25;96810.09;5015024;28;20079;-84
2023/10/19 10:18:35;;;;;;;10.52;7.32;;;;;;;10.69;90.63;96814.75;5012140;28;20060;-84
2023/10/19 10:21:15;;;;;;;17.17;11.20;;;;;;;10.79;96.49;96825.22;5027926;28;20096;-83
2023/10/19 10:23:47;;;;;;;13.15;9.30;;;;;;;10.70;97.73;96813.66;5044619;28;20393;-84
2023/10/19 10:26:14;;;;;;;10.98;6.88;;;;;;;10.96;87.68;96818.16;5032595;28;20025;-84
2023/10/19 10:28:40;;;;;;;10.43;6.20;;;;;;;10.86;87.15;96818.38;5014449;28;20125;-84
2023/10/19 10:31:21;;;;;;;13.75;9.13;;;;;;;10.82;90.42;96808.59;5031315;28;20461;-84
2023/10/19 10:33:56;;;;;;;11.05;7.03;;;;;;;10.87;89.93;96811.97;5010568;28;20030;-84
2023/10/19 10:36:23;;;;;;;10.85;7.15;;;;;;;10.97;88.64;96814.41;5014469;28;21662;-84
2023/10/19 10:38:50;;;;;;;12.15;7.82;;;;;;;11.01;91.07;96825.25;5028674;28;20373;-84
2023/10/19 10:41:29;;;;;;;9.75;7.22;;;;;;;11.04;91.75;96817.44;5027289;28;20037;-83
2023/10/19 10:43:55;;;;;;;8.60;6.93;;;;;;;11.08;94.00;96826.44;5011735;28;20044;-84
2023/10/19 10:46:27;;;;;;;8.82;6.43;;;;;;;11.05;92.75;96791.56;4993414;28;20050;-84
2023/10/19 10:48:52;;;;;;;19.30;12.10;;;;;;;11.12;92.55;96807.91;4997335;28;20116;-84
2023/10/19 10:51:19;;;;;;;10.55;7.63;;;;;;;11.20;90.77;96813.34;4997884;28;20145;-84
2023/10/19 10:53:52;;;;;;;9.68;6.45;;;;;;;11.22;90.47;96802.38;5013757;28;20048;-84
2023/10/19 10:56:23;;;;;;;9.40;6.57;;;;;;;11.38;88.20;96790.22;5023327;28;20037;-84
2023/10/19 10:58:49;;;;;;;8.45;6.13;;;;;;;11.38;89.62;96800.91;5011429;28;20548;-84
2023/10/19 11:01:27;;;;;;;10.98;7.80;;;;;;;11.38;91.71;96805.47;5013974;28;20057;-84
2023/10/19 11:04:05;;;;;;;8.43;6.72;;;;;;;11.34;89.77;96802.59;5028405;28;20025;-84
2023/10/19 11:06:31;;;;;;;9.30;6.68;;;;;;;11.48;87.90;96790.00;5008470;28;20026;-84
2023/10/19 11:08:57;;;;;;;6.53;5.70;;;;;;;11.43;87.38;96795.44;4995923;28;20603;-84
2023/10/19 11:11:22;;;;;;;9.40;6.25;;;;;;;11.38;88.84;96790.22;5013432;28;20107;-84
2023/10/19 11:13:47;;;;;;;10.07;7.85;;;;;;;11.38;92.70;96789.47;5011203;28;20034;-84
2023/10/19 11:16:22;;;;;;;8.63;6.97;;;;;;;11.46;88.43;96781.50;5034132;28;20116;-84
2023/10/19 11:18:50;;;;;;;13.88;9.57;;;;;;;11.52;97.32;96777.59;5006481;28;20034;-83
2023/10/19 11:21:18;;;;;;;8.00;6.95;;;;;;;11.47;92.61;96771.56;4998060;28;20034;-83
2023/10/19 11:23:48;;;;;;;12.68;9.45;;;;;;;11.63;92.96;96770.91;4997993;28;20036;-84
2023/10/19 11:26:17;;;;;;;11.38;8.73;;;;;;;11.74;93.44;96769.59;5013214;28;20033;-84
2023/10/19 11:28:43;;;;;;;7.22;6.10;;;;;;;11.81;88.67;96763.81;4996679;28;20087;-84
2023/10/19 11:31:13;;;;;;;11.63;8.95;;;;;;;11.86;92.35;96769.81;5010982;28;20034;-84
2023/10/19 11:33:38;;;;;;;11.90;8.45;;;;;;;11.89;93.44;96771.06;5010462;28;20025;-84
2023/10/19 11:36:04;;;;;;;7.95;6.90;;;;;;;11.90;90.04;96778.78;4997625;28;20445;-84
2023/10/19 11:38:30;;;;;;;9.45;7.00;;;;;;;11.90;90.08;96773.44;4981683;28;20037;-84
2023/10/19 11:40:56;;;;;;;12.80;8.88;;;;;;;11.82;90.59;96762.72;5012868;28;20112;-84
2023/10/19 11:43:21;;;;;;;11.43;9.10;;;;;;;11.74;93.67;96756.22;4996879;28;20044;-84
2023/10/19 11:45:46;;;;;;;10.00;8.43;;;;;;;11.85;92.09;96773.59;5011026;28;20045;-85
2023/10/19 11:48:12;;;;;;;8.55;6.43;;;;;;;11.81;88.38;96761.94;5019915;28;20017;-84
2023/10/19 11:50:37;;;;;;;14.55;9.50;;;;;;;11.76;91.70;96763.94;5009760;28;20030;-84
2023/10/19 11:53:03;;;;;;;8.88;7.32;;;;;;;11.74;89.01;96763.47;4989754;28;20508;-84